sensor_id;sensor_type;location;lat;lon;timestamp;temperature;humidity
69543;SHT31;56762;49.494;11.768;2024-03-23T00:52:24;7.83;86.95
69543;SHT31;56762;49.494;11.768;2024-03-23T00:54:50;7.79;86.77
69543;SHT31;56762;49.494;11.768;2024-03-23T00:57:16;7.75;87.15
69543;SHT31;56762;49.494;11.768;2024-03-23T00:59:43;7.70;86.72
69543;SHT31;56762;49.494;11.768;2024-03-23T01:02:08;7.69;87.28
69543;SHT31;56762;49.494;11.768;2024-03-23T01:04:35;7.66;87.06
69543;SHT31;56762;49.494;11.768;2024-03-23T01:07:01;7.63;87.02
69543;SHT31;56762;49.494;11.768;2024-03-23T01:09:28;7.62;87.17
69543;SHT31;56762;49.494;11.768;2024-03-23T01:11:54;7.59;87.54
69543;SHT31;56762;49.494;11.768;2024-03-23T01:14:21;7.52;86.96
69543;SHT31;56762;49.494;11.768;2024-03-23T01:16:47;7.54;87.57
69543;SHT31;56762;49.494;11.768;2024-03-23T01:19:14;7.48;87.58
69543;SHT31;56762;49.494;11.768;2024-03-23T01:21:40;7.46;87.89
69543;SHT31;56762;49.494;11.768;2024-03-23T01:24:09;7.42;87.78
69543;SHT31;56762;49.494;11.768;2024-03-23T01:26:36;7.39;87.76
69543;SHT31;56762;49.494;11.768;2024-03-23T01:29:03;7.39;87.36
69543;SHT31;56762;49.494;11.768;2024-03-23T01:31:31;7.34;87.60
69543;SHT31;56762;49.494;11.768;2024-03-23T01:33:58;7.31;87.54
69543;SHT31;56762;49.494;11.768;2024-03-23T01:36:24;7.29;87.88
69543;SHT31;56762;49.494;11.768;2024-03-23T01:38:51;7.24;87.78
69543;SHT31;56762;49.494;11.768;2024-03-23T01:41:17;7.19;88.21
69543;SHT31;56762;49.494;11.768;2024-03-23T01:43:44;7.19;88.03
69543;SHT31;56762;49.494;11.768;2024-03-23T01:46:10;7.16;87.97
69543;SHT31;56762;49.494;11.768;2024-03-23T01:48:36;7.11;88.24
69543;SHT31;56762;49.494;11.768;2024-03-23T01:51:03;7.08;88.13
69543;SHT31;56762;49.494;11.768;2024-03-23T01:53:31;7.07;88.23
69543;SHT31;56762;49.494;11.768;2024-03-23T01:55:56;7.08;88.02
69543;SHT31;56762;49.494;11.768;2024-03-23T01:58:23;7.07;87.85
69543;SHT31;56762;49.494;11.768;2024-03-23T02:00:49;7.09;88.31
69543;SHT31;56762;49.494;11.768;2024-03-23T02:05:49;7.25;87.55
69543;SHT31;56762;49.494;11.768;2024-03-23T02:08:23;7.26;87.41
69543;SHT31;56762;49.494;11.768;2024-03-23T02:10:50;7.25;87.65
69543;SHT31;56762;49.494;11.768;2024-03-23T02:13:18;7.28;87.71
69543;SHT31;56762;49.494;11.768;2024-03-23T02:15:44;7.32;87.71
69543;SHT31;56762;49.494;11.768;2024-03-23T02:18:11;7.36;87.69
69543;SHT31;56762;49.494;11.768;2024-03-23T02:20:37;7.42;87.47
69543;SHT31;56762;49.494;11.768;2024-03-23T02:23:05;7.49;87.48
69543;SHT31;56762;49.494;11.768;2024-03-23T02:25:32;7.49;87.46
69543;SHT31;56762;49.494;11.768;2024-03-23T02:27:59;7.55;87.76
69543;SHT31;56762;49.494;11.768;2024-03-23T02:30:26;7.55;87.47
69543;SHT31;56762;49.494;11.768;2024-03-23T02:32:52;7.55;87.71
69543;SHT31;56762;49.494;11.768;2024-03-23T02:35:19;7.55;87.62
69543;SHT31;56762;49.494;11.768;2024-03-23T02:37:46;7.56;87.54
69543;SHT31;56762;49.494;11.768;2024-03-23T02:40:15;7.54;87.20
69543;SHT31;56762;49.494;11.768;2024-03-23T02:42:40;7.46;86.75
69543;SHT31;56762;49.494;11.768;2024-03-23T02:45:07;7.39;86.34
69543;SHT31;56762;49.494;11.768;2024-03-23T02:47:33;7.39;87.47
69543;SHT31;56762;49.494;11.768;2024-03-23T02:50:00;7.55;89.88
69543;SHT31;56762;49.494;11.768;2024-03-23T02:52:26;7.94;94.24
69543;SHT31;56762;49.494;11.768;2024-03-23T02:54:53;8.47;95.29
69543;SHT31;56762;49.494;11.768;2024-03-23T02:57:18;8.87;93.80
69543;SHT31;56762;49.494;11.768;2024-03-23T02:59:45;9.10;92.38
69543;SHT31;56762;49.494;11.768;2024-03-23T03:02:11;9.33;90.94
69543;SHT31;56762;49.494;11.768;2024-03-23T03:04:38;9.38;89.64
69543;SHT31;56762;49.494;11.768;2024-03-23T03:07:04;9.34;89.11
69543;SHT31;56762;49.494;11.768;2024-03-23T03:09:31;9.37;88.92
69543;SHT31;56762;49.494;11.768;2024-03-23T03:11:58;9.40;88.82
69543;SHT31;56762;49.494;11.768;2024-03-23T03:14:25;9.06;85.63
69543;SHT31;56762;49.494;11.768;2024-03-23T03:16:51;9.06;87.01
69543;SHT31;56762;49.494;11.768;2024-03-23T03:19:17;9.10;84.45
69543;SHT31;56762;49.494;11.768;2024-03-23T03:21:43;9.03;86.87
69543;SHT31;56762;49.494;11.768;2024-03-23T03:24:10;9.15;87.13
69543;SHT31;56762;49.494;11.768;2024-03-23T03:26:35;9.15;86.82
69543;SHT31;56762;49.494;11.768;2024-03-23T03:29:02;9.36;88.16
69543;SHT31;56762;49.494;11.768;2024-03-23T03:31:28;9.55;86.75
69543;SHT31;56762;49.494;11.768;2024-03-23T03:33:55;9.61;86.49
69543;SHT31;56762;49.494;11.768;2024-03-23T03:36:21;9.84;85.76
69543;SHT31;56762;49.494;11.768;2024-03-23T03:38:48;9.92;85.17
69543;SHT31;56762;49.494;11.768;2024-03-23T03:41:13;9.88;84.64
69543;SHT31;56762;49.494;11.768;2024-03-23T03:43:40;9.79;85.08
69543;SHT31;56762;49.494;11.768;2024-03-23T03:46:06;9.82;85.68
69543;SHT31;56762;49.494;11.768;2024-03-23T03:48:34;9.88;85.40
69543;SHT31;56762;49.494;11.768;2024-03-23T03:50:59;9.87;85.18
69543;SHT31;56762;49.494;11.768;2024-03-23T03:53:26;9.92;83.46
69543;SHT31;56762;49.494;11.768;2024-03-23T03:55:52;9.78;83.57
69543;SHT31;56762;49.494;11.768;2024-03-23T03:58:19;9.52;82.89
69543;SHT31;56762;49.494;11.768;2024-03-23T04:00:45;9.46;85.46
69543;SHT31;56762;49.494;11.768;2024-03-23T04:03:12;9.34;83.50
69543;SHT31;56762;49.494;11.768;2024-03-23T04:05:37;9.40;86.85
69543;SHT31;56762;49.494;11.768;2024-03-23T04:08:05;9.40;84.48
69543;SHT31;56762;49.494;11.768;2024-03-23T04:10:31;9.50;85.79
69543;SHT31;56762;49.494;11.768;2024-03-23T04:12:57;9.58;85.85
69543;SHT31;56762;49.494;11.768;2024-03-23T04:15:23;9.68;84.66
69543;SHT31;56762;49.494;11.768;2024-03-23T04:17:50;9.75;85.54
69543;SHT31;56762;49.494;11.768;2024-03-23T04:20:16;9.64;84.33
69543;SHT31;56762;49.494;11.768;2024-03-23T04:22:43;9.54;85.46
69543;SHT31;56762;49.494;11.768;2024-03-23T04:25:09;9.57;85.34
69543;SHT31;56762;49.494;11.768;2024-03-23T04:27:37;9.65;85.93
69543;SHT31;56762;49.494;11.768;2024-03-23T04:30:03;9.74;85.75
69543;SHT31;56762;49.494;11.768;2024-03-23T04:32:38;9.81;85.43
69543;SHT31;56762;49.494;11.768;2024-03-23T04:35:04;9.82;85.35
69543;SHT31;56762;49.494;11.768;2024-03-23T04:37:32;9.89;84.64
69543;SHT31;56762;49.494;11.768;2024-03-23T04:40:00;9.84;80.88
69543;SHT31;56762;49.494;11.768;2024-03-23T04:42:29;9.87;84.78
69543;SHT31;56762;49.494;11.768;2024-03-23T04:44:56;9.61;82.55
69543;SHT31;56762;49.494;11.768;2024-03-23T04:47:22;9.65;85.39
69543;SHT31;56762;49.494;11.768;2024-03-23T04:49:49;9.81;85.54
69543;SHT31;56762;49.494;11.768;2024-03-23T04:52:16;9.81;84.78
69543;SHT31;56762;49.494;11.768;2024-03-23T04:54:43;9.84;83.35
69543;SHT31;56762;49.494;11.768;2024-03-23T04:57:10;9.81;84.54
69543;SHT31;56762;49.494;11.768;2024-03-23T04:59:37;9.75;85.02
69543;SHT31;56762;49.494;11.768;2024-03-23T05:02:03;9.54;83.81
69543;SHT31;56762;49.494;11.768;2024-03-23T05:04:30;9.41;85.57
69543;SHT31;56762;49.494;11.768;2024-03-23T05:06:57;9.40;82.05
69543;SHT31;56762;49.494;11.768;2024-03-23T05:09:25;9.40;83.21
69543;SHT31;56762;49.494;11.768;2024-03-23T05:11:56;9.50;84.64
69543;SHT31;56762;49.494;11.768;2024-03-23T05:14:22;9.38;82.84
69543;SHT31;56762;49.494;11.768;2024-03-23T05:16:48;9.36;85.69
69543;SHT31;56762;49.494;11.768;2024-03-23T05:19:15;9.36;86.16
69543;SHT31;56762;49.494;11.768;2024-03-23T05:21:40;9.37;83.20
69543;SHT31;56762;49.494;11.768;2024-03-23T05:24:07;9.41;85.98
69543;SHT31;56762;49.494;11.768;2024-03-23T05:26:33;9.62;85.57
69543;SHT31;56762;49.494;11.768;2024-03-23T05:29:02;9.38;80.79
69543;SHT31;56762;49.494;11.768;2024-03-23T05:31:29;9.38;84.08
69543;SHT31;56762;49.494;11.768;2024-03-23T05:33:56;9.41;83.47
69543;SHT31;56762;49.494;11.768;2024-03-23T05:36:23;9.41;84.43
69543;SHT31;56762;49.494;11.768;2024-03-23T05:38:50;9.46;85.27
69543;SHT31;56762;49.494;11.768;2024-03-23T05:41:16;9.50;84.29
69543;SHT31;56762;49.494;11.768;2024-03-23T05:43:43;9.52;84.93
69543;SHT31;56762;49.494;11.768;2024-03-23T05:46:08;9.43;83.36
69543;SHT31;56762;49.494;11.768;2024-03-23T05:48:35;9.17;81.71
69543;SHT31;56762;49.494;11.768;2024-03-23T05:51:02;8.85;83.04
69543;SHT31;56762;49.494;11.768;2024-03-23T05:53:28;8.76;83.54
69543;SHT31;56762;49.494;11.768;2024-03-23T05:56:03;9.03;86.40
69543;SHT31;56762;49.494;11.768;2024-03-23T05:58:32;9.27;85.62
69543;SHT31;56762;49.494;11.768;2024-03-23T06:00:59;9.52;85.19
69543;SHT31;56762;49.494;11.768;2024-03-23T06:03:30;9.70;83.59
69543;SHT31;56762;49.494;11.768;2024-03-23T06:05:56;9.74;83.57
69543;SHT31;56762;49.494;11.768;2024-03-23T06:08:23;9.95;83.16
69543;SHT31;56762;49.494;11.768;2024-03-23T06:10:50;10.05;83.12
69543;SHT31;56762;49.494;11.768;2024-03-23T06:13:17;10.12;80.63
69543;SHT31;56762;49.494;11.768;2024-03-23T06:15:43;10.19;83.13
69543;SHT31;56762;49.494;11.768;2024-03-23T06:18:11;10.26;80.36
69543;SHT31;56762;49.494;11.768;2024-03-23T06:20:37;10.39;82.31
69543;SHT31;56762;49.494;11.768;2024-03-23T06:23:04;10.40;81.40
69543;SHT31;56762;49.494;11.768;2024-03-23T06:25:30;10.60;81.16
69543;SHT31;56762;49.494;11.768;2024-03-23T06:27:57;10.76;79.75
69543;SHT31;56762;49.494;11.768;2024-03-23T06:30:23;10.81;80.76
69543;SHT31;56762;49.494;11.768;2024-03-23T06:32:50;10.76;80.63
69543;SHT31;56762;49.494;11.768;2024-03-23T06:35:16;10.76;81.06
69543;SHT31;56762;49.494;11.768;2024-03-23T06:37:43;10.71;81.05
69543;SHT31;56762;49.494;11.768;2024-03-23T06:40:09;10.66;80.78
69543;SHT31;56762;49.494;11.768;2024-03-23T06:42:36;10.66;80.95
69543;SHT31;56762;49.494;11.768;2024-03-23T06:45:03;10.68;80.50
69543;SHT31;56762;49.494;11.768;2024-03-23T06:47:30;10.71;79.89
69543;SHT31;56762;49.494;11.768;2024-03-23T06:49:56;10.74;80.83
69543;SHT31;56762;49.494;11.768;2024-03-23T06:52:23;10.80;80.83
69543;SHT31;56762;49.494;11.768;2024-03-23T06:54:48;10.84;81.06
69543;SHT31;56762;49.494;11.768;2024-03-23T06:57:15;10.90;79.80
69543;SHT31;56762;49.494;11.768;2024-03-23T06:59:41;10.93;79.89
69543;SHT31;56762;49.494;11.768;2024-03-23T07:02:08;10.96;79.93
69543;SHT31;56762;49.494;11.768;2024-03-23T07:04:35;10.93;80.18
69543;SHT31;56762;49.494;11.768;2024-03-23T07:07:02;10.90;80.37
69543;SHT31;56762;49.494;11.768;2024-03-23T07:09:28;10.70;79.23
69543;SHT31;56762;49.494;11.768;2024-03-23T07:11:58;10.50;79.23
69543;SHT31;56762;49.494;11.768;2024-03-23T07:14:24;10.37;79.61
69543;SHT31;56762;49.494;11.768;2024-03-23T07:16:51;10.29;80.44
69543;SHT31;56762;49.494;11.768;2024-03-23T07:19:17;10.20;81.01
69543;SHT31;56762;49.494;11.768;2024-03-23T07:21:44;10.18;81.16
69543;SHT31;56762;49.494;11.768;2024-03-23T07:24:11;10.15;81.91
69543;SHT31;56762;49.494;11.768;2024-03-23T07:26:38;10.13;81.35
69543;SHT31;56762;49.494;11.768;2024-03-23T07:29:04;10.12;82.00
69543;SHT31;56762;49.494;11.768;2024-03-23T07:31:31;10.10;82.32
69543;SHT31;56762;49.494;11.768;2024-03-23T07:33:57;10.12;82.31
69543;SHT31;56762;49.494;11.768;2024-03-23T07:36:24;10.09;82.62
69543;SHT31;56762;49.494;11.768;2024-03-23T07:38:50;10.03;82.32
69543;SHT31;56762;49.494;11.768;2024-03-23T07:41:20;9.98;83.27
69543;SHT31;56762;49.494;11.768;2024-03-23T07:43:47;9.94;83.51
69543;SHT31;56762;49.494;11.768;2024-03-23T07:46:15;9.92;82.88
69543;SHT31;56762;49.494;11.768;2024-03-23T07:48:41;9.92;83.38
69543;SHT31;56762;49.494;11.768;2024-03-23T07:51:11;9.95;83.38
69543;SHT31;56762;49.494;11.768;2024-03-23T07:53:37;9.95;83.74
69543;SHT31;56762;49.494;11.768;2024-03-23T07:56:08;9.95;83.79
69543;SHT31;56762;49.494;11.768;2024-03-23T07:58:35;9.95;83.75
69543;SHT31;56762;49.494;11.768;2024-03-23T08:01:10;9.91;84.43
69543;SHT31;56762;49.494;11.768;2024-03-23T08:03:37;9.89;84.57
69543;SHT31;56762;49.494;11.768;2024-03-23T08:06:11;9.84;84.55
69543;SHT31;56762;49.494;11.768;2024-03-23T08:08:39;9.84;84.20
69543;SHT31;56762;49.494;11.768;2024-03-23T08:11:06;9.88;84.90
69543;SHT31;56762;49.494;11.768;2024-03-23T08:13:32;9.81;85.41
69543;SHT31;56762;49.494;11.768;2024-03-23T08:16:01;9.77;85.26
69543;SHT31;56762;49.494;11.768;2024-03-23T08:18:27;9.74;85.20
69543;SHT31;56762;49.494;11.768;2024-03-23T08:21:04;9.75;85.88
69543;SHT31;56762;49.494;11.768;2024-03-23T08:23:32;9.91;85.71
69543;SHT31;56762;49.494;11.768;2024-03-23T08:26:02;10.09;84.05
69543;SHT31;56762;49.494;11.768;2024-03-23T08:28:28;10.30;84.60
69543;SHT31;56762;49.494;11.768;2024-03-23T08:30:56;10.45;84.56
69543;SHT31;56762;49.494;11.768;2024-03-23T08:33:23;10.40;82.71
69543;SHT31;56762;49.494;11.768;2024-03-23T08:36:01;10.42;82.93
69543;SHT31;56762;49.494;11.768;2024-03-23T08:38:28;10.39;83.33
69543;SHT31;56762;49.494;11.768;2024-03-23T08:41:02;10.36;82.71
69543;SHT31;56762;49.494;11.768;2024-03-23T08:43:29;10.25;82.85
69543;SHT31;56762;49.494;11.768;2024-03-23T08:46:10;10.23;83.13
69543;SHT31;56762;49.494;11.768;2024-03-23T08:48:38;10.19;83.46
69543;SHT31;56762;49.494;11.768;2024-03-23T08:51:07;10.13;83.14
69543;SHT31;56762;49.494;11.768;2024-03-23T08:53:34;10.13;83.38
69543;SHT31;56762;49.494;11.768;2024-03-23T08:56:02;10.03;83.66
69543;SHT31;56762;49.494;11.768;2024-03-23T08:58:28;9.98;85.01
69543;SHT31;56762;49.494;11.768;2024-03-23T09:00:56;9.85;85.15
69543;SHT31;56762;49.494;11.768;2024-03-23T09:03:24;9.77;85.22
69543;SHT31;56762;49.494;11.768;2024-03-23T09:05:51;9.61;85.55
69543;SHT31;56762;49.494;11.768;2024-03-23T09:08:18;9.48;86.00
69543;SHT31;56762;49.494;11.768;2024-03-23T09:10:45;9.36;86.60
69543;SHT31;56762;49.494;11.768;2024-03-23T09:13:10;9.27;86.79
69543;SHT31;56762;49.494;11.768;2024-03-23T09:15:46;9.26;86.48
69543;SHT31;56762;49.494;11.768;2024-03-23T09:18:12;9.24;84.03
69543;SHT31;56762;49.494;11.768;2024-03-23T09:20:39;9.19;82.58
69543;SHT31;56762;49.494;11.768;2024-03-23T09:23:05;9.07;84.48
69543;SHT31;56762;49.494;11.768;2024-03-23T09:25:31;8.97;84.10
69543;SHT31;56762;49.494;11.768;2024-03-23T09:27:58;8.93;84.06
69543;SHT31;56762;49.494;11.768;2024-03-23T09:30:25;8.99;84.25
69543;SHT31;56762;49.494;11.768;2024-03-23T09:32:51;8.96;83.61
69543;SHT31;56762;49.494;11.768;2024-03-23T09:35:17;9.17;84.52
69543;SHT31;56762;49.494;11.768;2024-03-23T09:37:44;9.30;82.32
69543;SHT31;56762;49.494;11.768;2024-03-23T09:40:11;9.27;81.26
69543;SHT31;56762;49.494;11.768;2024-03-23T09:42:38;9.33;82.87
69543;SHT31;56762;49.494;11.768;2024-03-23T09:45:06;9.37;82.10
69543;SHT31;56762;49.494;11.768;2024-03-23T09:47:36;9.51;81.45
69543;SHT31;56762;49.494;11.768;2024-03-23T09:50:04;9.64;78.75
69543;SHT31;56762;49.494;11.768;2024-03-23T09:52:30;9.77;79.17
69543;SHT31;56762;49.494;11.768;2024-03-23T09:54:57;9.88;79.36
69543;SHT31;56762;49.494;11.768;2024-03-23T09:57:23;9.95;78.80
69543;SHT31;56762;49.494;11.768;2024-03-23T09:59:49;9.85;77.87
69543;SHT31;56762;49.494;11.768;2024-03-23T10:02:16;9.75;77.86
69543;SHT31;56762;49.494;11.768;2024-03-23T10:04:45;9.65;78.10
69543;SHT31;56762;49.494;11.768;2024-03-23T10:09:39;9.43;77.90
69543;SHT31;56762;49.494;11.768;2024-03-23T10:12:12;9.62;77.46
69543;SHT31;56762;49.494;11.768;2024-03-23T10:14:40;9.85;76.35
69543;SHT31;56762;49.494;11.768;2024-03-23T10:17:20;9.99;75.67
69543;SHT31;56762;49.494;11.768;2024-03-23T10:19:51;10.16;75.90
69543;SHT31;56762;49.494;11.768;2024-03-23T10:22:21;10.19;73.63
69543;SHT31;56762;49.494;11.768;2024-03-23T10:24:48;10.18;72.78
69543;SHT31;56762;49.494;11.768;2024-03-23T10:27:21;10.16;73.07
69543;SHT31;56762;49.494;11.768;2024-03-23T10:29:49;10.13;72.92
69543;SHT31;56762;49.494;11.768;2024-03-23T10:32:16;10.15;73.68
69543;SHT31;56762;49.494;11.768;2024-03-23T10:34:44;10.18;72.82
69543;SHT31;56762;49.494;11.768;2024-03-23T10:37:11;10.06;72.31
69543;SHT31;56762;49.494;11.768;2024-03-23T10:39:40;9.95;69.41
69543;SHT31;56762;49.494;11.768;2024-03-23T10:42:08;9.89;69.04
69543;SHT31;56762;49.494;11.768;2024-03-23T10:44:36;9.81;68.89
69543;SHT31;56762;49.494;11.768;2024-03-23T10:47:04;9.79;69.17
69543;SHT31;56762;49.494;11.768;2024-03-23T10:49:32;9.71;71.18
69543;SHT31;56762;49.494;11.768;2024-03-23T10:52:00;9.73;69.02
69543;SHT31;56762;49.494;11.768;2024-03-23T10:54:26;9.64;70.39
69543;SHT31;56762;49.494;11.768;2024-03-23T10:57:07;9.59;68.29
69543;SHT31;56762;49.494;11.768;2024-03-23T10:59:39;9.43;68.84
69543;SHT31;56762;49.494;11.768;2024-03-23T11:02:07;9.38;70.50
69543;SHT31;56762;49.494;11.768;2024-03-23T11:04:35;9.28;70.15
69543;SHT31;56762;49.494;11.768;2024-03-23T11:09:55;9.34;69.16
69543;SHT31;56762;49.494;11.768;2024-03-23T11:14:50;9.34;66.58
69543;SHT31;56762;49.494;11.768;2024-03-23T11:17:24;9.47;67.43
69543;SHT31;56762;49.494;11.768;2024-03-23T11:25:23;9.95;65.98
69543;SHT31;56762;49.494;11.768;2024-03-23T11:27:51;10.02;66.82
69543;SHT31;56762;49.494;11.768;2024-03-23T11:30:25;10.10;65.42
69543;SHT31;56762;49.494;11.768;2024-03-23T11:32:57;10.15;65.76
69543;SHT31;56762;49.494;11.768;2024-03-23T11:38:15;10.25;62.97
69543;SHT31;56762;49.494;11.768;2024-03-23T11:40:46;9.97;61.74
69543;SHT31;56762;49.494;11.768;2024-03-23T11:43:15;9.64;61.49
69543;SHT31;56762;49.494;11.768;2024-03-23T11:45:46;9.52;60.75
69543;SHT31;56762;49.494;11.768;2024-03-23T11:48:15;9.31;58.98
69543;SHT31;56762;49.494;11.768;2024-03-23T11:50:48;9.15;60.66
69543;SHT31;56762;49.494;11.768;2024-03-23T11:53:18;9.02;59.62
69543;SHT31;56762;49.494;11.768;2024-03-23T11:55:52;8.85;60.03
69543;SHT31;56762;49.494;11.768;2024-03-23T11:58:20;8.72;61.41
69543;SHT31;56762;49.494;11.768;2024-03-23T12:03:24;8.69;61.92
69543;SHT31;56762;49.494;11.768;2024-03-23T12:05:52;8.73;61.53
69543;SHT31;56762;49.494;11.768;2024-03-23T12:08:33;8.80;59.90
69543;SHT31;56762;49.494;11.768;2024-03-23T12:11:06;9.03;62.01
69543;SHT31;56762;49.494;11.768;2024-03-23T12:13:34;9.20;60.52
69543;SHT31;56762;49.494;11.768;2024-03-23T12:16:12;9.58;61.77
69543;SHT31;56762;49.494;11.768;2024-03-23T12:18:45;9.77;63.36
69543;SHT31;56762;49.494;11.768;2024-03-23T12:21:12;9.81;61.28
69543;SHT31;56762;49.494;11.768;2024-03-23T12:23:39;9.78;60.94
69543;SHT31;56762;49.494;11.768;2024-03-23T12:26:05;9.74;67.61
69543;SHT31;56762;49.494;11.768;2024-03-23T12:28:33;9.82;67.09
69543;SHT31;56762;49.494;11.768;2024-03-23T12:30:58;9.58;61.64
69543;SHT31;56762;49.494;11.768;2024-03-23T12:33:25;9.46;63.58
69543;SHT31;56762;49.494;11.768;2024-03-23T12:35:52;9.37;61.46
69543;SHT31;56762;49.494;11.768;2024-03-23T12:38:19;9.22;63.10
69543;SHT31;56762;49.494;11.768;2024-03-23T12:40:49;9.13;60.86
69543;SHT31;56762;49.494;11.768;2024-03-23T12:43:16;9.05;61.95
69543;SHT31;56762;49.494;11.768;2024-03-23T12:45:49;9.05;62.30
69543;SHT31;56762;49.494;11.768;2024-03-23T12:48:16;9.15;62.72
69543;SHT31;56762;49.494;11.768;2024-03-23T12:50:42;9.12;60.54
69543;SHT31;56762;49.494;11.768;2024-03-23T12:53:09;9.07;62.07
69543;SHT31;56762;49.494;11.768;2024-03-23T12:55:35;9.16;64.55
69543;SHT31;56762;49.494;11.768;2024-03-23T12:58:02;9.24;64.34
69543;SHT31;56762;49.494;11.768;2024-03-23T13:00:28;9.27;59.30
69543;SHT31;56762;49.494;11.768;2024-03-23T13:02:55;9.33;58.50
69543;SHT31;56762;49.494;11.768;2024-03-23T13:05:21;9.44;56.78
69543;SHT31;56762;49.494;11.768;2024-03-23T13:07:48;9.57;58.29
69543;SHT31;56762;49.494;11.768;2024-03-23T13:10:13;9.64;57.73
69543;SHT31;56762;49.494;11.768;2024-03-23T13:12:41;9.78;58.03
69543;SHT31;56762;49.494;11.768;2024-03-23T13:15:09;9.84;53.40
69543;SHT31;56762;49.494;11.768;2024-03-23T13:17:35;9.78;53.39
69543;SHT31;56762;49.494;11.768;2024-03-23T13:20:01;9.70;52.32
69543;SHT31;56762;49.494;11.768;2024-03-23T13:22:29;9.64;55.65
69543;SHT31;56762;49.494;11.768;2024-03-23T13:24:55;9.59;53.09
69543;SHT31;56762;49.494;11.768;2024-03-23T13:27:22;9.55;52.00
69543;SHT31;56762;49.494;11.768;2024-03-23T13:29:48;9.55;55.28
69543;SHT31;56762;49.494;11.768;2024-03-23T13:32:16;9.55;53.63
69543;SHT31;56762;49.494;11.768;2024-03-23T13:34:41;9.50;56.01
69543;SHT31;56762;49.494;11.768;2024-03-23T13:37:09;9.54;55.59
69543;SHT31;56762;49.494;11.768;2024-03-23T13:39:35;9.58;56.75
69543;SHT31;56762;49.494;11.768;2024-03-23T13:42:01;9.65;55.93
69543;SHT31;56762;49.494;11.768;2024-03-23T13:44:29;9.68;56.14
69543;SHT31;56762;49.494;11.768;2024-03-23T13:46:55;9.75;57.44
69543;SHT31;56762;49.494;11.768;2024-03-23T13:49:29;9.89;54.80
69543;SHT31;56762;49.494;11.768;2024-03-23T13:51:57;9.95;53.50
69543;SHT31;56762;49.494;11.768;2024-03-23T13:54:24;10.08;56.91
69543;SHT31;56762;49.494;11.768;2024-03-23T13:56:51;10.08;50.42
69543;SHT31;56762;49.494;11.768;2024-03-23T13:59:17;10.02;54.35
69543;SHT31;56762;49.494;11.768;2024-03-23T14:01:45;9.95;51.11
69543;SHT31;56762;49.494;11.768;2024-03-23T14:06:47;9.97;54.20
69543;SHT31;56762;49.494;11.768;2024-03-23T14:09:14;9.99;51.44
69543;SHT31;56762;49.494;11.768;2024-03-23T14:11:41;10.01;50.39
69543;SHT31;56762;49.494;11.768;2024-03-23T14:14:08;10.08;52.14
69543;SHT31;56762;49.494;11.768;2024-03-23T14:16:34;10.10;50.26
69543;SHT31;56762;49.494;11.768;2024-03-23T14:19:01;10.10;52.33
69543;SHT31;56762;49.494;11.768;2024-03-23T14:21:27;10.25;55.29
69543;SHT31;56762;49.494;11.768;2024-03-23T14:23:54;10.19;56.40
69543;SHT31;56762;49.494;11.768;2024-03-23T14:26:20;10.22;50.98
69543;SHT31;56762;49.494;11.768;2024-03-23T14:28:47;10.25;50.66
69543;SHT31;56762;49.494;11.768;2024-03-23T14:31:14;10.16;50.70
69543;SHT31;56762;49.494;11.768;2024-03-23T14:33:41;10.16;50.56
69543;SHT31;56762;49.494;11.768;2024-03-23T14:36:15;10.19;47.53
69543;SHT31;56762;49.494;11.768;2024-03-23T14:38:49;10.20;54.00
69543;SHT31;56762;49.494;11.768;2024-03-23T14:41:15;10.12;50.44
69543;SHT31;56762;49.494;11.768;2024-03-23T14:43:42;10.15;52.86
69543;SHT31;56762;49.494;11.768;2024-03-23T14:46:10;10.18;47.97
69543;SHT31;56762;49.494;11.768;2024-03-23T14:48:38;10.29;50.61
69543;SHT31;56762;49.494;11.768;2024-03-23T14:51:05;10.23;48.00
69543;SHT31;56762;49.494;11.768;2024-03-23T14:53:35;10.20;47.88
69543;SHT31;56762;49.494;11.768;2024-03-23T14:56:01;10.19;49.62
69543;SHT31;56762;49.494;11.768;2024-03-23T14:58:29;10.19;48.43
69543;SHT31;56762;49.494;11.768;2024-03-23T15:01:06;10.15;49.58
69543;SHT31;56762;49.494;11.768;2024-03-23T15:03:35;10.12;48.86
69543;SHT31;56762;49.494;11.768;2024-03-23T15:06:00;10.12;50.74
69543;SHT31;56762;49.494;11.768;2024-03-23T15:08:28;10.10;50.31
69543;SHT31;56762;49.494;11.768;2024-03-23T15:10:58;10.06;49.65
69543;SHT31;56762;49.494;11.768;2024-03-23T15:13:25;10.09;51.70
69543;SHT31;56762;49.494;11.768;2024-03-23T15:15:51;10.09;50.49
69543;SHT31;56762;49.494;11.768;2024-03-23T15:18:18;10.05;49.93
69543;SHT31;56762;49.494;11.768;2024-03-23T15:21:00;10.08;49.92
69543;SHT31;56762;49.494;11.768;2024-03-23T15:23:31;10.12;51.87
69543;SHT31;56762;49.494;11.768;2024-03-23T15:26:01;10.16;48.98
69543;SHT31;56762;49.494;11.768;2024-03-23T15:28:29;10.18;50.74
69543;SHT31;56762;49.494;11.768;2024-03-23T15:31:07;10.19;50.40
69543;SHT31;56762;49.494;11.768;2024-03-23T15:33:35;10.22;50.43
69543;SHT31;56762;49.494;11.768;2024-03-23T15:36:04;10.19;50.21
69543;SHT31;56762;49.494;11.768;2024-03-23T15:38:32;10.08;51.17
69543;SHT31;56762;49.494;11.768;2024-03-23T15:40:58;9.98;52.35
69543;SHT31;56762;49.494;11.768;2024-03-23T15:43:25;9.85;51.28
69543;SHT31;56762;49.494;11.768;2024-03-23T15:46:05;9.81;53.98
69543;SHT31;56762;49.494;11.768;2024-03-23T15:48:32;9.79;53.69
69543;SHT31;56762;49.494;11.768;2024-03-23T15:50:59;9.71;51.96
69543;SHT31;56762;49.494;11.768;2024-03-23T15:53:27;9.61;53.07
69543;SHT31;56762;49.494;11.768;2024-03-23T15:56:01;9.51;53.43
69543;SHT31;56762;49.494;11.768;2024-03-23T15:58:29;9.48;53.55
69543;SHT31;56762;49.494;11.768;2024-03-23T16:01:06;9.40;53.98
69543;SHT31;56762;49.494;11.768;2024-03-23T16:03:34;9.30;54.34
69543;SHT31;56762;49.494;11.768;2024-03-23T16:06:04;9.24;54.90
69543;SHT31;56762;49.494;11.768;2024-03-23T16:08:32;9.09;60.37
69543;SHT31;56762;49.494;11.768;2024-03-23T16:11:06;8.92;67.49
69543;SHT31;56762;49.494;11.768;2024-03-23T16:13:34;8.66;71.35
69543;SHT31;56762;49.494;11.768;2024-03-23T16:16:01;8.40;74.12
69543;SHT31;56762;49.494;11.768;2024-03-23T16:18:31;8.21;75.57
69543;SHT31;56762;49.494;11.768;2024-03-23T16:20:58;8.06;75.97
69543;SHT31;56762;49.494;11.768;2024-03-23T16:23:25;8.13;77.25
69543;SHT31;56762;49.494;11.768;2024-03-23T16:25:53;8.16;76.27
69543;SHT31;56762;49.494;11.768;2024-03-23T16:33:30;7.48;77.61
69543;SHT31;56762;49.494;11.768;2024-03-23T16:38:27;7.29;77.77
69543;SHT31;56762;49.494;11.768;2024-03-23T16:40:57;7.14;79.11
69543;SHT31;56762;49.494;11.768;2024-03-23T16:43:26;7.08;79.71
69543;SHT31;56762;49.494;11.768;2024-03-23T16:46:13;6.97;79.12
69543;SHT31;56762;49.494;11.768;2024-03-23T16:48:44;6.85;80.15
69543;SHT31;56762;49.494;11.768;2024-03-23T16:51:11;6.81;79.55
69543;SHT31;56762;49.494;11.768;2024-03-23T16:53:38;6.72;79.69